Time;durP1;ratioP1;P1;durP2;ratioP2;P2;SDS_P1;SDS_P2;PMS_P1;PMS_P2;Temp;Humidity;BMP_temperature;BMP_pressure;BME280_temperature;BME280_humidity;BME280_pressure;Samples;Min_cycle;Max_cycle;Signal;HPM_P1;HPM_P2
2022/12/12 00:00:45;;;;;;;0.70;0.70;;;;;;;-5.40;76.40;100396.00;5085057;28;20039;-66
2022/12/12 00:03:10;;;;;;;0.70;0.70;;;;;;;-5.38;76.55;100403.69;5085346;28;20500;-67
2022/12/12 00:05:36;;;;;;;0.65;0.65;;;;;;;-5.38;76.53;100401.16;5085312;28;20024;-66
2022/12/12 00:08:01;;;;;;;0.80;0.80;;;;;;;-5.29;76.53;100411.81;5085457;28;20029;-67
2022/12/12 00:10:27;;;;;;;0.70;0.70;;;;;;;-5.29;76.49;100405.88;5085152;28;20107;-65
2022/12/12 00:12:52;;;;;;;0.80;0.80;;;;;;;-5.24;76.66;100404.47;5083992;28;20487;-66
2022/12/12 00:15:18;;;;;;;0.70;0.70;;;;;;;-5.20;76.81;100402.97;5085174;28;20025;-66
2022/12/12 00:17:43;;;;;;;0.70;0.70;;;;;;;-5.15;76.72;100405.00;5085329;28;20031;-66
2022/12/12 00:20:09;;;;;;;0.65;0.65;;;;;;;-5.13;76.52;100394.94;5085023;28;20032;-67
2022/12/12 00:22:34;;;;;;;0.80;0.80;;;;;;;-5.10;76.63;100397.66;5084911;28;20037;-66
2022/12/12 00:24:59;;;;;;;0.60;0.60;;;;;;;-5.17;76.60;100393.91;5083577;28;20063;-66
2022/12/12 00:27:25;;;;;;;0.70;0.70;;;;;;;-5.21;76.50;100389.47;5083842;28;20035;-66
2022/12/12 00:29:52;;;;;;;0.80;0.80;;;;;;;-5.13;76.43;100398.34;5084739;28;20446;-66
2022/12/12 00:32:17;;;;;;;0.70;0.70;;;;;;;-5.22;76.38;100398.72;5085223;28;20020;-65
2022/12/12 00:34:43;;;;;;;0.70;0.70;;;;;;;-5.18;76.32;100397.22;5084714;28;20112;-66
2022/12/12 00:37:08;;;;;;;0.70;0.70;;;;;;;-5.24;76.37;100391.81;5084919;28;20188;-66
2022/12/12 00:39:34;;;;;;;0.80;0.80;;;;;;;-5.24;76.55;100396.91;5082972;28;20031;-66
2022/12/12 00:41:59;;;;;;;0.80;0.80;;;;;;;-5.30;76.39;100394.88;5083666;28;20070;-66
2022/12/12 00:44:25;;;;;;;0.70;0.70;;;;;;;-5.31;76.37;100393.13;5083605;28;20024;-65
2022/12/12 00:46:50;;;;;;;0.73;0.73;;;;;;;-5.64;76.34;100357.56;5084236;28;20024;-65
2022/12/12 00:49:15;;;;;;;0.70;0.70;;;;;;;-5.45;76.47;100388.97;5084910;28;20025;-65
2022/12/12 00:51:42;;;;;;;0.68;0.68;;;;;;;-5.57;76.34;100379.88;5084927;28;20411;-66
2022/12/12 00:54:08;;;;;;;0.70;0.70;;;;;;;-5.65;76.24;100386.16;5084737;28;20036;-66
2022/12/12 00:56:34;;;;;;;0.80;0.80;;;;;;;-5.79;76.27;100378.66;5084964;28;20104;-66
2022/12/12 00:59:02;;;;;;;0.75;0.75;;;;;;;-5.89;76.24;100381.44;5084879;28;20100;-67
2022/12/12 01:01:29;;;;;;;0.73;0.73;;;;;;;-5.88;76.33;100378.16;5083319;28;20092;-66
2022/12/12 01:03:55;;;;;;;0.70;0.70;;;;;;;-5.90;76.25;100379.69;5084585;28;20085;-66
2022/12/12 01:06:21;;;;;;;0.80;0.80;;;;;;;-5.94;76.47;100385.38;5083216;28;20598;-66
2022/12/12 01:08:46;;;;;;;0.70;0.70;;;;;;;-5.99;76.46;100380.91;5084360;28;20053;-66
2022/12/12 01:11:13;;;;;;;0.70;0.70;;;;;;;-6.15;76.44;100361.47;5084513;28;20082;-65
2022/12/12 01:13:40;;;;;;;1.00;1.00;;;;;;;-6.02;76.60;100390.84;5083079;28;20020;-66
2022/12/12 01:16:06;;;;;;;0.70;0.70;;;;;;;-6.02;76.81;100384.94;5084193;28;20028;-66
2022/12/12 01:18:32;;;;;;;0.70;0.70;;;;;;;-6.04;76.81;100381.47;5084593;28;20024;-68
2022/12/12 01:20:58;;;;;;;0.65;0.65;;;;;;;-6.07;76.77;100387.19;5084218;28;20047;-66
2022/12/12 01:23:23;;;;;;;0.70;0.70;;;;;;;-6.12;76.98;100391.97;5084373;28;20052;-66
2022/12/12 01:25:49;;;;;;;0.63;0.63;;;;;;;-6.15;76.88;100394.31;5083171;28;20032;-66
2022/12/12 01:28:15;;;;;;;0.70;0.70;;;;;;;-6.17;76.81;100400.97;5084266;28;20076;-66
2022/12/12 01:30:40;;;;;;;0.70;0.70;;;;;;;-6.17;76.86;100400.09;5084233;28;20024;-66
2022/12/12 01:33:06;;;;;;;0.70;0.70;;;;;;;-6.16;77.07;100406.88;5084577;28;20449;-66
2022/12/12 01:35:32;;;;;;;1.08;1.08;;;;;;;-6.11;77.16;100403.84;5082753;28;20073;-66
2022/12/12 01:37:57;;;;;;;7.40;6.82;;;;;;;-6.05;77.12;100399.97;5084431;28;20052;-66
2022/12/12 01:40:26;;;;;;;0.70;0.70;;;;;;;-5.97;77.10;100402.09;5084117;28;20067;-66
2022/12/12 01:42:53;;;;;;;0.70;0.70;;;;;;;-5.94;77.32;100391.28;5082838;28;20092;-66
2022/12/12 01:45:56;;;;;;;0.70;0.70;;;;;;;-5.86;77.43;100396.78;5084373;28;20515;-66
2022/12/12 01:48:38;;;;;;;0.60;0.60;;;;;;;-5.86;77.37;100392.59;5087715;28;20055;-66
2022/12/12 01:51:10;;;;;;;0.70;0.70;;;;;;;-5.85;77.50;100385.91;5087688;28;20024;-65
2022/12/12 01:53:36;;;;;;;0.70;0.70;;;;;;;-5.76;77.49;100380.50;5087666;28;20022;-66
2022/12/12 01:56:04;;;;;;;0.70;0.70;;;;;;;-5.74;77.66;100376.41;5087581;28;20036;-66
2022/12/12 01:58:30;;;;;;;0.70;0.70;;;;;;;-5.64;77.83;100382.88;5087548;28;20080;-66
2022/12/12 02:00:56;;;;;;;0.70;0.70;;;;;;;-5.61;77.74;100372.91;5087430;28;20558;-66
2022/12/12 02:03:21;;;;;;;0.60;0.60;;;;;;;-5.57;77.76;100384.09;5087506;28;20032;-66
2022/12/12 02:05:51;;;;;;;0.70;0.70;;;;;;;-5.58;77.82;100375.63;5087377;28;20025;-66
2022/12/12 02:08:20;;;;;;;0.70;0.70;;;;;;;-5.51;77.96;100384.44;5087553;28;20035;-66
2022/12/12 02:10:45;;;;;;;0.70;0.70;;;;;;;-5.54;77.95;100384.25;5086076;28;20048;-66
2022/12/12 02:13:15;;;;;;;0.70;0.70;;;;;;;-5.50;78.15;100386.16;5087515;28;20013;-66
2022/12/12 02:15:44;;;;;;;0.70;0.70;;;;;;;-5.48;77.99;100390.53;5087237;28;20099;-67
2022/12/12 02:18:39;;;;;;;0.80;0.80;;;;;;;-5.44;78.07;100391.56;5087327;28;20422;-66
2022/12/12 02:21:58;;;;;;;0.60;0.60;;;;;;;-5.40;78.19;100392.63;5086936;28;20432;-66
2022/12/12 02:24:33;;;;;;;0.70;0.70;;;;;;;-5.39;78.19;100384.25;5064432;28;20037;-66
2022/12/12 02:27:24;;;;;;;0.70;0.70;;;;;;;-5.40;78.29;100380.81;5064882;28;20037;-66
2022/12/12 02:30:11;;;;;;;0.90;0.90;;;;;;;-5.38;78.31;100378.38;5064372;28;20029;-66
2022/12/12 02:32:57;;;;;;;0.60;0.60;;;;;;;-5.36;78.38;100379.34;5064451;28;20068;-66
2022/12/12 02:36:00;;;;;;;0.70;0.70;;;;;;;-5.31;78.14;100380.47;5064608;28;20033;-65
2022/12/12 02:38:54;;;;;;;0.70;0.70;;;;;;;-5.41;78.60;100390.88;5064186;28;20056;-66
2022/12/12 02:41:27;;;;;;;0.70;0.70;;;;;;;-5.20;77.94;100406.38;5059006;28;20049;-65
2022/12/12 02:44:21;;;;;;;0.70;0.70;;;;;;;-5.44;78.40;100395.75;5064154;28;20096;-66
2022/12/12 02:46:49;;;;;;;0.60;0.60;;;;;;;-5.42;78.40;100400.13;5064065;28;20025;-66
2022/12/12 02:49:14;;;;;;;0.60;0.60;;;;;;;-5.53;78.39;100409.66;5064090;28;20029;-66
2022/12/12 02:51:41;;;;;;;0.70;0.70;;;;;;;-5.67;78.98;100390.28;5064202;28;20044;-66
2022/12/12 02:54:13;;;;;;;0.70;0.70;;;;;;;-5.73;79.49;100386.59;5064185;28;20033;-67
2022/12/12 02:56:43;;;;;;;0.70;0.70;;;;;;;-5.68;79.60;100396.97;5063964;28;20108;-66
2022/12/12 02:59:11;;;;;;;0.70;0.70;;;;;;;-5.66;79.31;100381.91;5082038;28;20036;-66
2022/12/12 03:01:46;;;;;;;0.70;0.70;;;;;;;-5.69;79.52;100374.13;5086161;28;20017;-66
2022/12/12 03:07:46;;;;;;;0.60;0.60;;;;;;;-5.69;79.79;100382.59;5086357;28;20055;-65
2022/12/12 03:10:29;;;;;;;0.70;0.70;;;;;;;-5.68;79.82;100370.81;5086195;28;20452;-65
2022/12/12 03:13:16;;;;;;;0.70;0.70;;;;;;;-5.69;79.91;100381.72;5086105;28;20097;-66
2022/12/12 03:16:05;;;;;;;0.70;0.70;;;;;;;-5.60;79.41;100377.19;5084657;28;20162;-66
2022/12/12 03:18:55;;;;;;;0.70;0.70;;;;;;;-5.66;79.51;100375.19;5084615;28;20122;-67
2022/12/12 03:21:23;;;;;;;0.70;0.70;;;;;;;-5.72;79.78;100365.56;5086020;28;20044;-66
2022/12/12 03:24:03;;;;;;;0.80;0.80;;;;;;;-5.72;79.75;100373.16;5085830;28;20025;-66
2022/12/12 03:26:54;;;;;;;0.75;0.75;;;;;;;-5.69;79.74;100371.59;5085675;28;20020;-66
2022/12/12 03:29:26;;;;;;;0.70;0.70;;;;;;;-5.70;79.82;100372.41;5084806;28;20066;-65
2022/12/12 03:31:59;;;;;;;0.70;0.70;;;;;;;-5.73;80.00;100368.91;5083526;28;20031;-66
2022/12/12 03:34:35;;;;;;;0.70;0.70;;;;;;;-5.66;79.92;100381.91;5085777;28;20020;-66
2022/12/12 03:37:08;;;;;;;0.70;0.70;;;;;;;-5.60;79.82;100379.72;5085554;28;20024;-65
2022/12/12 03:39:42;;;;;;;0.70;0.70;;;;;;;-5.58;79.78;100387.38;5085350;28;20388;-65
2022/12/12 03:42:14;;;;;;;0.70;0.70;;;;;;;-5.58;79.65;100382.31;5085728;28;20051;-66
2022/12/12 03:44:46;;;;;;;0.93;0.93;;;;;;;-5.52;79.58;100380.13;5085067;28;20507;-66
2022/12/12 03:47:18;;;;;;;0.70;0.70;;;;;;;-5.56;79.85;100386.72;5085473;28;20028;-67
2022/12/12 03:49:52;;;;;;;0.70;0.70;;;;;;;-5.51;79.78;100394.56;5085427;28;20024;-67
2022/12/12 03:52:29;;;;;;;0.70;0.70;;;;;;;-5.49;79.70;100393.84;5085579;28;20020;-66
2022/12/12 03:55:03;;;;;;;0.70;0.70;;;;;;;-5.49;79.74;100406.50;5085352;28;20066;-66
2022/12/12 03:57:37;;;;;;;0.70;0.70;;;;;;;-5.58;79.52;100400.91;5083989;28;20025;-66
2022/12/12 04:00:08;;;;;;;0.70;0.70;;;;;;;-5.82;79.49;100372.56;5085168;28;20024;-66
2022/12/12 04:02:53;;;;;;;0.90;0.90;;;;;;;-5.68;79.43;100406.22;5085358;28;20024;-67
2022/12/12 04:06:25;;;;;;;0.70;0.70;;;;;;;-5.68;79.50;100409.63;5085158;28;20522;-66
2022/12/12 04:08:26;;;;;;;0.70;0.70;;;;;;;-5.74;79.44;100405.09;5084572;28;20035;-66
2022/12/12 04:14:00;;;;;;;0.70;0.70;;;;;;;-5.79;79.71;100411.53;5085257;28;20089;-66
2022/12/12 04:16:34;;;;;;;0.70;0.70;;;;;;;-5.72;79.50;100416.16;5085031;28;20028;-66
2022/12/12 04:19:07;;;;;;;0.70;0.70;;;;;;;-5.83;79.65;100412.13;5085357;28;20510;-66
2022/12/12 04:24:21;;;;;;;0.68;0.68;;;;;;;-5.83;79.82;100422.25;5085097;28;20043;-66
2022/12/12 04:26:56;;;;;;;0.70;0.70;;;;;;;-5.80;79.88;100430.03;5084934;28;20059;-66
2022/12/12 04:29:31;;;;;;;0.70;0.70;;;;;;;-5.77;79.94;100431.88;5084881;28;20024;-66
2022/12/12 04:32:15;;;;;;;0.73;0.73;;;;;;;-5.74;79.88;100430.41;5084718;28;20040;-66
2022/12/12 04:34:52;;;;;;;0.70;0.70;;;;;;;-5.73;79.79;100431.25;5085000;28;20024;-66
2022/12/12 04:37:23;;;;;;;0.70;0.70;;;;;;;-5.70;79.79;100425.50;5083648;28;20059;-66
2022/12/12 04:39:51;;;;;;;0.70;0.70;;;;;;;-5.67;79.78;100425.69;5085053;28;20021;-67
2022/12/12 04:42:21;;;;;;;0.70;0.70;;;;;;;-5.67;80.03;100418.94;5083319;28;20020;-66
2022/12/12 04:44:49;;;;;;;2.47;2.40;;;;;;;-5.64;79.92;100418.28;5084547;28;20136;-67
2022/12/12 04:47:16;;;;;;;0.70;0.70;;;;;;;-5.59;79.66;100414.34;5085008;28;20020;-67
2022/12/12 04:49:46;;;;;;;0.68;0.68;;;;;;;-5.63;79.92;100408.25;5084689;28;20020;-66
2022/12/12 04:52:13;;;;;;;0.70;0.70;;;;;;;-5.66;79.92;100410.59;5085032;28;20044;-66
2022/12/12 04:55:04;;;;;;;0.63;0.63;;;;;;;-5.66;80.15;100404.66;5084661;28;20035;-66
2022/12/12 04:57:41;;;;;;;0.70;0.70;;;;;;;-5.62;80.09;100416.69;5084770;28;20039;-66
2022/12/12 05:00:09;;;;;;;0.70;0.70;;;;;;;-5.57;79.84;100410.25;5084506;28;20029;-66
2022/12/12 05:03:25;;;;;;;0.60;0.60;;;;;;;-5.59;80.04;100406.75;5084569;28;20081;-65
2022/12/12 05:05:56;;;;;;;0.70;0.70;;;;;;;-5.58;80.12;100413.56;5062058;28;20040;-65
2022/12/12 05:08:24;;;;;;;0.70;0.70;;;;;;;-5.54;80.04;100415.47;5062223;28;20509;-66
2022/12/12 05:10:53;;;;;;;0.70;0.70;;;;;;;-5.54;79.79;100415.47;5061923;28;20037;-65
2022/12/12 05:13:26;;;;;;;0.70;0.70;;;;;;;-5.49;79.69;100414.09;5045096;28;20043;-66
2022/12/12 05:15:54;;;;;;;0.70;0.70;;;;;;;-5.53;79.48;100409.66;5061920;28;20037;-66
2022/12/12 05:18:21;;;;;;;0.70;0.70;;;;;;;-5.48;79.42;100420.03;5062415;28;20156;-67
2022/12/12 05:20:46;;;;;;;0.70;0.70;;;;;;;-5.43;79.17;100408.50;5062894;28;20779;-66
2022/12/12 05:23:11;;;;;;;0.70;0.70;;;;;;;-5.51;79.46;100423.25;5066051;28;20092;-66
2022/12/12 05:25:37;;;;;;;0.70;0.70;;;;;;;-5.50;79.60;100425.00;5049039;28;20100;-67
2022/12/12 05:28:02;;;;;;;0.68;0.68;;;;;;;-5.47;79.62;100420.13;5065926;28;20043;-66
2022/12/12 05:30:28;;;;;;;0.70;0.70;;;;;;;-5.55;79.89;100423.88;5065675;28;20036;-66
2022/12/12 05:32:54;;;;;;;0.70;0.70;;;;;;;-5.49;79.98;100423.31;5065322;28;20025;-66
2022/12/12 05:35:19;;;;;;;0.80;0.80;;;;;;;-5.50;79.91;100422.47;5064140;28;20032;-67
2022/12/12 05:37:45;;;;;;;0.70;0.70;;;;;;;-5.50;80.14;100435.13;5064205;28;20036;-66
2022/12/12 05:40:12;;;;;;;0.70;0.70;;;;;;;-5.49;79.93;100419.16;5064176;28;20032;-66
2022/12/12 05:42:38;;;;;;;0.70;0.70;;;;;;;-5.34;79.79;100420.81;5086788;28;20099;-65
2022/12/12 05:45:05;;;;;;;0.70;0.70;;;;;;;-5.42;79.83;100417.84;5087829;28;20116;-65
2022/12/12 05:47:30;;;;;;;0.70;0.70;;;;;;;-5.50;80.16;100411.47;5088204;28;20024;-66
2022/12/12 05:49:56;;;;;;;0.70;0.70;;;;;;;-5.49;80.51;100415.75;5086427;28;20050;-66
2022/12/12 05:52:21;;;;;;;0.80;0.80;;;;;;;-5.45;80.54;100409.19;5088043;28;20030;-66
2022/12/12 05:54:47;;;;;;;0.70;0.70;;;;;;;-5.43;80.75;100402.56;5087812;28;20408;-66
2022/12/12 05:57:12;;;;;;;0.70;0.70;;;;;;;-5.62;80.70;100386.34;5087720;28;20559;-66
2022/12/12 05:59:38;;;;;;;0.70;0.70;;;;;;;-5.22;80.26;100411.38;5087816;28;20044;-65
2022/12/12 06:02:03;;;;;;;0.70;0.70;;;;;;;-5.31;80.14;100412.50;5087425;28;20027;-66
2022/12/12 06:04:29;;;;;;;0.70;0.70;;;;;;;-5.42;80.42;100404.31;5087856;28;20039;-67
2022/12/12 06:06:54;;;;;;;0.70;0.70;;;;;;;-5.41;80.74;100421.22;5087724;28;20027;-67
2022/12/12 06:09:20;;;;;;;0.70;0.70;;;;;;;-5.28;80.39;100421.16;5087739;28;20025;-66
2022/12/12 06:11:45;;;;;;;0.70;0.70;;;;;;;-5.32;80.59;100421.78;5086479;28;20024;-66
2022/12/12 06:14:10;;;;;;;0.60;0.60;;;;;;;-5.33;80.54;100420.00;5087535;28;20141;-65
2022/12/12 06:16:36;;;;;;;0.70;0.70;;;;;;;-5.36;80.68;100412.25;5087222;28;20024;-66
2022/12/12 06:19:02;;;;;;;0.70;0.70;;;;;;;-5.30;80.52;100417.66;5087736;28;20444;-66
2022/12/12 06:21:27;;;;;;;0.65;0.65;;;;;;;-5.25;80.21;100421.31;5087297;28;20049;-66
2022/12/12 06:23:53;;;;;;;0.70;0.70;;;;;;;-5.34;79.97;100415.75;5087746;28;20033;-67
2022/12/12 06:26:19;;;;;;;0.70;0.70;;;;;;;-5.47;80.33;100412.53;5087447;28;20031;-65
2022/12/12 06:28:45;;;;;;;0.70;0.70;;;;;;;-5.40;80.26;100420.47;5087243;28;20031;-65
2022/12/12 06:31:12;;;;;;;0.70;0.70;;;;;;;-5.45;80.45;100430.31;5086477;28;20029;-66
2022/12/12 06:33:38;;;;;;;0.70;0.70;;;;;;;-5.48;80.36;100420.88;5087224;28;20078;-65
2022/12/12 06:36:10;;;;;;;0.68;0.68;;;;;;;-5.43;80.18;100423.66;5086963;28;20025;-63
2022/12/12 06:38:36;;;;;;;;;;;;;;;-5.48;80.06;100420.88;5087667;28;20031;-64
2022/12/12 06:41:06;;;;;;;0.70;0.70;;;;;;;-5.57;80.24;100422.88;5086724;28;19908;-65
2022/12/12 06:43:32;;;;;;;0.70;0.70;;;;;;;-5.62;80.38;100431.88;5086781;28;20031;-65
2022/12/12 06:46:02;;;;;;;0.70;0.70;;;;;;;-5.64;80.22;100426.72;5086793;28;20111;-64
2022/12/12 06:48:29;;;;;;;0.70;0.70;;;;;;;-5.66;80.18;100414.78;5086835;28;20042;-64
2022/12/12 06:50:55;;;;;;;0.75;0.75;;;;;;;-5.63;80.27;100414.94;5086724;28;20032;-64
2022/12/12 06:53:20;;;;;;;0.70;0.70;;;;;;;-5.53;80.21;100429.00;5086659;28;20016;-64
2022/12/12 06:55:45;;;;;;;0.70;0.70;;;;;;;-5.52;79.98;100429.09;5086497;28;20028;-64
2022/12/12 06:58:11;;;;;;;0.70;0.70;;;;;;;-5.58;80.10;100420.28;5086823;28;20028;-65
2022/12/12 07:00:36;;;;;;;0.80;0.80;;;;;;;-5.61;80.32;100421.84;5085090;28;20028;-65
2022/12/12 07:03:02;;;;;;;0.70;0.70;;;;;;;-5.69;80.25;100409.53;5086514;28;20039;-64
2022/12/12 07:05:27;;;;;;;0.70;0.70;;;;;;;-5.63;80.11;100417.47;5086345;28;20088;-65
2022/12/12 07:07:53;;;;;;;0.65;0.65;;;;;;;-5.51;80.12;100430.84;5086493;28;20048;-64
2022/12/12 07:10:18;;;;;;;0.70;0.70;;;;;;;-5.53;80.36;100432.41;5086421;28;20032;-64
2022/12/12 07:12:44;;;;;;;0.70;0.70;;;;;;;-5.54;80.37;100429.81;5086606;28;20028;-65
2022/12/12 07:15:09;;;;;;;0.70;0.70;;;;;;;-5.57;79.72;100427.09;5085886;28;20028;-64
2022/12/12 07:17:35;;;;;;;0.70;0.70;;;;;;;-5.57;80.43;100438.06;5085164;28;20029;-64
2022/12/12 07:20:00;;;;;;;0.70;0.70;;;;;;;-5.55;80.64;100448.28;5086508;28;20028;-64
2022/12/12 07:22:26;;;;;;;0.80;0.80;;;;;;;-5.57;80.55;100445.66;5086137;28;20044;-64
2022/12/12 07:24:51;;;;;;;0.70;0.70;;;;;;;-5.54;80.55;100445.84;5086293;28;20039;-64
2022/12/12 07:27:17;;;;;;;0.70;0.70;;;;;;;-5.52;80.33;100444.28;5085138;28;20142;-64
2022/12/12 07:29:43;;;;;;;0.82;0.82;;;;;;;-5.52;80.45;100453.50;5083427;28;20071;-64
2022/12/12 07:32:09;;;;;;;0.80;0.80;;;;;;;-5.51;80.64;100447.69;5085392;28;20017;-64
2022/12/12 07:34:35;;;;;;;0.70;0.70;;;;;;;-5.51;80.60;100452.75;5086140;28;20040;-63
2022/12/12 07:37:00;;;;;;;0.70;0.70;;;;;;;-5.51;80.53;100453.59;5085737;28;20047;-64
2022/12/12 07:39:28;;;;;;;0.70;0.70;;;;;;;-5.48;80.62;100452.94;5085740;28;20021;-63
2022/12/12 07:41:54;;;;;;;0.70;0.70;;;;;;;-5.48;80.49;100451.25;5085820;28;20084;-64
2022/12/12 07:44:19;;;;;;;0.70;0.70;;;;;;;-5.42;80.35;100457.44;5085006;28;20052;-64
2022/12/12 07:46:45;;;;;;;0.70;0.70;;;;;;;-5.54;80.67;100432.34;5085440;28;20046;-64
2022/12/12 07:49:10;;;;;;;0.63;0.63;;;;;;;-5.49;80.72;100443.56;5085621;28;20036;-64
2022/12/12 07:51:37;;;;;;;0.60;0.60;;;;;;;-5.50;80.63;100442.72;5085627;28;20040;-64
2022/12/12 07:54:03;;;;;;;0.70;0.70;;;;;;;-5.42;80.75;100445.69;5085570;28;20058;-64
2022/12/12 07:56:28;;;;;;;0.70;0.70;;;;;;;-5.38;80.86;100441.66;5084220;28;20028;-64
2022/12/12 07:58:54;;;;;;;0.70;0.70;;;;;;;-5.31;80.73;100445.41;5084160;28;20070;-64
2022/12/12 08:01:23;;;;;;;0.60;0.60;;;;;;;-5.29;80.81;100447.25;5085359;28;20035;-64
2022/12/12 08:03:49;;;;;;;0.70;0.70;;;;;;;-5.31;80.62;100432.75;5084079;28;20021;-64
2022/12/12 08:06:15;;;;;;;0.70;0.70;;;;;;;-5.27;80.86;100439.75;5085350;28;20051;-64
2022/12/12 08:08:41;;;;;;;0.70;0.70;;;;;;;-5.22;80.72;100446.81;5085499;28;20024;-64
2022/12/12 08:11:09;;;;;;;0.70;0.70;;;;;;;-5.28;80.72;100436.34;5085291;28;20052;-64
2022/12/12 08:13:36;;;;;;;0.80;0.80;;;;;;;-5.25;80.82;100445.75;5085255;28;20020;-64
2022/12/12 08:16:02;;;;;;;0.70;0.70;;;;;;;-5.24;80.94;100452.56;5085322;28;20028;-64
2022/12/12 08:18:28;;;;;;;0.70;0.70;;;;;;;-5.25;80.91;100444.09;5085231;28;20423;-64
2022/12/12 08:20:53;;;;;;;0.63;0.63;;;;;;;-5.17;80.66;100457.19;5084868;28;20059;-63
2022/12/12 08:23:18;;;;;;;0.70;0.70;;;;;;;-5.18;80.64;100459.63;5085292;28;20101;-64
2022/12/12 08:25:44;;;;;;;0.70;0.70;;;;;;;-5.16;80.66;100453.84;5083825;28;20035;-63
2022/12/12 08:28:10;;;;;;;0.80;0.80;;;;;;;-5.19;80.91;100441.03;5085165;28;20039;-66
2022/12/12 08:30:35;;;;;;;0.70;0.70;;;;;;;-5.06;80.58;100467.91;5085149;28;20028;-63
2022/12/12 08:33:01;;;;;;;0.70;0.70;;;;;;;-5.04;80.62;100452.81;5083785;28;20019;-63
2022/12/12 08:35:28;;;;;;;0.70;0.70;;;;;;;-5.07;80.73;100455.16;5084954;28;20056;-64
2022/12/12 08:37:54;;;;;;;0.70;0.70;;;;;;;-5.08;80.80;100448.38;5085057;28;20028;-64
2022/12/12 08:40:19;;;;;;;0.70;0.70;;;;;;;-4.99;80.65;100462.41;5083664;28;20115;-63
2022/12/12 08:42:44;;;;;;;0.80;0.80;;;;;;;-4.99;80.71;100451.41;5084948;28;20116;-65
2022/12/12 08:45:10;;;;;;;0.70;0.70;;;;;;;-4.93;80.63;100458.47;5084614;28;20073;-65
2022/12/12 08:47:35;;;;;;;0.88;0.88;;;;;;;-4.88;80.06;100462.13;5085299;28;20031;-64
2022/12/12 08:50:01;;;;;;;0.70;0.70;;;;;;;-4.91;80.00;100462.84;5084996;28;20020;-64
2022/12/12 08:52:26;;;;;;;0.70;0.70;;;;;;;-4.96;79.87;100454.09;5083862;28;20020;-64
2022/12/12 08:54:52;;;;;;;0.70;0.70;;;;;;;-4.89;79.79;100456.19;5086289;28;20029;-64
2022/12/12 08:57:17;;;;;;;0.60;0.60;;;;;;;-4.92;79.85;100453.47;5089141;28;20024;-64
2022/12/12 08:59:43;;;;;;;0.70;0.70;;;;;;;-4.80;80.09;100448.22;5088894;28;20028;-64
2022/12/12 09:02:11;;;;;;;0.60;0.60;;;;;;;-4.57;79.72;100445.19;5088570;28;20048;-64
2022/12/12 09:04:37;;;;;;;0.70;0.70;;;;;;;-4.28;79.46;100444.19;5087167;28;20035;-64
2022/12/12 09:07:02;;;;;;;0.70;0.70;;;;;;;-3.93;79.13;100451.88;5087666;28;20025;-64
2022/12/12 09:09:28;;;;;;;0.60;0.60;;;;;;;-3.43;78.74;100433.19;5087726;28;20025;-64
2022/12/12 09:11:53;;;;;;;0.70;0.70;;;;;;;-2.85;77.18;100441.88;5087746;28;20464;-65
2022/12/12 09:14:19;;;;;;;0.70;0.70;;;;;;;-2.54;76.32;100438.19;5087501;28;20146;-64
2022/12/12 09:16:44;;;;;;;0.60;0.60;;;;;;;-2.41;74.84;100447.25;5087234;28;20115;-64
2022/12/12 09:19:10;;;;;;;0.60;0.60;;;;;;;-2.38;73.86;100442.28;5088014;28;20024;-68
2022/12/12 09:21:35;;;;;;;0.60;0.60;;;;;;;-2.36;73.74;100439.81;5088263;28;20058;-69
2022/12/12 09:24:01;;;;;;;0.52;0.52;;;;;;;-2.27;72.42;100441.91;5088503;28;20020;-69
2022/12/12 09:26:26;;;;;;;0.60;0.60;;;;;;;-2.57;72.13;100444.81;5088429;28;20024;-69
2022/12/12 09:28:52;;;;;;;0.60;0.60;;;;;;;-2.94;72.64;100446.50;5088583;28;20027;-68
2022/12/12 09:31:17;;;;;;;0.65;0.65;;;;;;;-3.17;73.13;100451.34;5088210;28;20080;-69
2022/12/12 09:33:43;;;;;;;0.60;0.60;;;;;;;-3.42;73.62;100437.47;5088404;28;20047;-69
2022/12/12 09:36:10;;;;;;;0.60;0.60;;;;;;;-3.38;73.99;100458.00;5088185;28;20447;-69
2022/12/12 09:38:36;;;;;;;0.60;0.60;;;;;;;-3.24;74.56;100451.06;5088331;28;20284;-69
2022/12/12 09:41:25;;;;;;;0.63;0.63;;;;;;;-2.58;74.59;100449.03;5088195;28;20024;-69
2022/12/12 09:43:59;;;;;;;0.55;0.55;;;;;;;-1.73;73.56;100442.50;5088111;28;20024;-70
2022/12/12 09:46:31;;;;;;;0.60;0.60;;;;;;;-0.74;72.05;100435.41;5088008;28;20086;-69
2022/12/12 09:49:29;;;;;;;0.55;0.55;;;;;;;0.08;69.46;100436.66;5088306;28;20124;-69
2022/12/12 09:51:55;;;;;;;0.60;0.60;;;;;;;0.64;66.52;100435.94;5083828;28;20024;-69
2022/12/12 09:54:24;;;;;;;0.60;0.60;;;;;;;0.45;65.13;100439.56;5088097;28;20028;-71
2022/12/12 09:57:18;;;;;;;0.60;0.60;;;;;;;0.62;65.36;100435.03;5087980;28;20107;-69
2022/12/12 10:00:09;;;;;;;0.60;0.60;;;;;;;0.63;64.40;100438.44;5088108;28;20103;-69
2022/12/12 10:03:03;;;;;;;0.60;0.60;;;;;;;0.64;64.39;100441.06;5087961;28;20032;-69
2022/12/12 10:05:29;;;;;;;0.60;0.60;;;;;;;0.88;64.42;100432.44;5087641;28;20103;-67
2022/12/12 10:08:18;;;;;;;0.55;0.55;;;;;;;1.43;62.15;100423.84;5087191;28;20052;-68
2022/12/12 10:10:48;;;;;;;0.60;0.60;;;;;;;1.25;61.91;100414.81;5087644;28;20021;-68
2022/12/12 10:13:19;;;;;;;0.60;0.60;;;;;;;0.96;61.79;100418.22;5087883;28;20142;-69
2022/12/12 10:15:49;;;;;;;0.65;0.65;;;;;;;0.56;62.53;100430.59;5087324;28;20028;-70
2022/12/12 10:18:24;;;;;;;0.60;0.60;;;;;;;-0.18;62.71;100417.06;5087667;28;20024;-69
2022/12/12 10:20:52;;;;;;;0.60;0.60;;;;;;;-0.88;63.91;100414.50;5087337;28;20066;-68
2022/12/12 10:23:29;;;;;;;0.60;0.60;;;;;;;-1.36;66.15;100418.56;5087561;28;20056;-70
2022/12/12 10:25:57;;;;;;;0.60;0.60;;;;;;;-1.57;66.47;100418.56;5087502;28;20078;-69
2022/12/12 10:28:26;;;;;;;0.70;0.70;;;;;;;-1.85;66.78;100413.16;5087593;28;20016;-69
2022/12/12 10:31:31;;;;;;;0.60;0.60;;;;;;;-2.33;66.94;100389.09;5087151;28;20025;-69
2022/12/12 10:34:00;;;;;;;0.60;0.60;;;;;;;-2.58;67.03;100410.91;5087416;28;20047;-69
2022/12/12 10:36:56;;;;;;;0.60;0.60;;;;;;;-2.89;68.28;100420.50;5087224;28;20051;-68
2022/12/12 10:40:18;;;;;;;0.60;0.60;;;;;;;-3.04;69.50;100412.19;5086106;28;20095;-69
2022/12/12 10:43:01;;;;;;;3.95;3.67;;;;;;;-3.06;69.07;100412.09;5064517;28;20099;-68
2022/12/12 10:45:44;;;;;;;0.70;0.70;;;;;;;-3.24;69.24;100423.13;5064445;28;20032;-67
2022/12/12 10:48:10;;;;;;;0.70;0.70;;;;;;;-3.38;70.19;100422.47;5064801;28;20051;-69
2022/12/12 10:50:44;;;;;;;0.70;0.70;;;;;;;-3.25;70.49;100415.44;5064496;28;20061;-69
2022/12/12 10:53:10;;;;;;;0.70;0.70;;;;;;;-3.20;70.84;100424.16;5064405;28;20040;-68
2022/12/12 10:55:56;;;;;;;0.70;0.70;;;;;;;-3.26;70.35;100414.56;5064241;28;20052;-68
2022/12/12 10:58:26;;;;;;;0.73;0.73;;;;;;;-3.40;70.08;100413.03;5057162;28;20040;-69
2022/12/12 11:01:00;;;;;;;0.68;0.68;;;;;;;-3.59;70.01;100386.75;5064093;28;20033;-68
2022/12/12 11:03:34;;;;;;;0.60;0.60;;;;;;;-3.58;70.55;100402.84;5047696;28;20020;-69
2022/12/12 11:06:06;;;;;;;0.70;0.70;;;;;;;-3.56;70.63;100399.59;5064111;28;20025;-69
2022/12/12 11:08:35;;;;;;;0.70;0.70;;;;;;;-3.28;70.74;100395.88;5064443;28;20020;-68
2022/12/12 11:11:23;;;;;;;0.60;0.60;;;;;;;-2.82;70.49;100382.69;5064138;28;20028;-68
2022/12/12 11:13:55;;;;;;;0.63;0.63;;;;;;;-2.12;69.58;100380.66;5077935;28;20052;-69
2022/12/12 11:16:24;;;;;;;0.90;0.90;;;;;;;-1.27;67.57;100373.09;5086226;28;20020;-68
2022/12/12 11:18:58;;;;;;;0.70;0.70;;;;;;;-0.57;65.57;100376.50;5086520;28;20029;-69
2022/12/12 11:21:24;;;;;;;0.65;0.65;;;;;;;-0.15;64.05;100370.34;5086144;28;20132;-69
2022/12/12 11:23:56;;;;;;;0.70;0.70;;;;;;;0.21;62.88;100374.97;5084986;28;20115;-69
2022/12/12 11:26:22;;;;;;;;;;;;;;;-0.32;62.80;100383.34;5086132;28;20020;-69
2022/12/12 11:28:56;;;;;;;0.70;0.70;;;;;;;-1.27;64.10;100388.38;5084965;28;19935;-69
2022/12/12 11:31:25;;;;;;;0.70;0.70;;;;;;;-2.03;65.78;100382.75;5085467;28;20469;-69
2022/12/12 11:33:55;;;;;;;0.60;0.60;;;;;;;-2.54;67.49;100392.41;5085811;28;20461;-69
2022/12/12 11:36:26;;;;;;;0.70;0.70;;;;;;;-2.93;68.42;100390.69;5085963;28;20024;-68
2022/12/12 11:38:54;;;;;;;0.70;0.70;;;;;;;-3.16;69.13;100382.84;5084620;28;20028;-69
2022/12/12 11:41:21;;;;;;;0.60;0.60;;;;;;;-3.35;69.55;100396.34;5085900;28;20055;-68
2022/12/12 11:43:46;;;;;;;0.68;0.68;;;;;;;-3.44;70.19;100395.91;5085854;28;20490;-69
2022/12/12 11:46:14;;;;;;;0.70;0.70;;;;;;;-3.60;70.52;100395.16;5084275;28;20100;-68
2022/12/12 11:48:46;;;;;;;0.70;0.70;;;;;;;-3.74;70.86;100390.28;5084566;28;20032;-69
2022/12/12 11:51:13;;;;;;;1.00;1.00;;;;;;;-3.89;71.36;100382.78;5085732;28;20140;-69